sensor_id;sensor_type;location;lat;lon;timestamp;temperature;humidity
20496;DHT22;10406;54.132;17.968;2024-03-23T04:05:06;6.40;99.90
20496;DHT22;10406;54.132;17.968;2024-03-23T06:02:45;6.50;99.90
20496;DHT22;10406;54.132;17.968;2024-03-23T06:33:24;6.60;99.90
20496;DHT22;10406;54.132;17.968;2024-03-23T13:02:38;9.80;99.90
20496;DHT22;10406;54.132;17.968;2024-03-23T13:07:59;10.40;99.90
20496;DHT22;10406;54.132;17.968;2024-03-23T13:13:20;9.80;99.90
20496;DHT22;10406;54.132;17.968;2024-03-23T13:18:43;9.90;99.90
20496;DHT22;10406;54.132;17.968;2024-03-23T13:24:06;10.10;99.90
20496;DHT22;10406;54.132;17.968;2024-03-23T13:29:27;9.90;99.90
20496;DHT22;10406;54.132;17.968;2024-03-23T13:34:51;9.80;99.90
20496;DHT22;10406;54.132;17.968;2024-03-23T13:40:12;10.00;99.90
20496;DHT22;10406;54.132;17.968;2024-03-23T13:45:33;8.90;99.90
20496;DHT22;10406;54.132;17.968;2024-03-23T13:51:00;11.80;99.90
20496;DHT22;10406;54.132;17.968;2024-03-23T13:56:24;6.40;99.90
20496;DHT22;10406;54.132;17.968;2024-03-23T14:01:45;8.80;99.90
20496;DHT22;10406;54.132;17.968;2024-03-23T14:07:09;8.80;99.90
20496;DHT22;10406;54.132;17.968;2024-03-23T14:12:30;8.70;99.90
20496;DHT22;10406;54.132;17.968;2024-03-23T14:23:14;8.20;99.90
20496;DHT22;10406;54.132;17.968;2024-03-23T14:28:35;6.80;99.90
20496;DHT22;10406;54.132;17.968;2024-03-23T14:33:56;6.80;99.90
20496;DHT22;10406;54.132;17.968;2024-03-23T14:39:18;8.40;99.90
20496;DHT22;10406;54.132;17.968;2024-03-23T14:44:43;7.80;99.90
20496;DHT22;10406;54.132;17.968;2024-03-23T14:50:04;7.70;99.90
20496;DHT22;10406;54.132;17.968;2024-03-23T14:55:29;7.70;99.90
20496;DHT22;10406;54.132;17.968;2024-03-23T15:00:50;7.70;99.90
20496;DHT22;10406;54.132;17.968;2024-03-23T15:06:12;7.70;99.90
20496;DHT22;10406;54.132;17.968;2024-03-23T15:11:35;7.40;99.90
20496;DHT22;10406;54.132;17.968;2024-03-23T15:16:56;7.70;99.90
20496;DHT22;10406;54.132;17.968;2024-03-23T15:22:17;8.50;99.90
20496;DHT22;10406;54.132;17.968;2024-03-23T15:27:40;7.60;99.90
20496;DHT22;10406;54.132;17.968;2024-03-23T15:33:01;7.90;99.90
20496;DHT22;10406;54.132;17.968;2024-03-23T15:38:22;9.00;99.90
20496;DHT22;10406;54.132;17.968;2024-03-23T15:43:45;7.50;99.90
20496;DHT22;10406;54.132;17.968;2024-03-23T15:49:06;7.30;99.90
20496;DHT22;10406;54.132;17.968;2024-03-23T15:54:26;7.30;99.90
20496;DHT22;10406;54.132;17.968;2024-03-23T15:59:49;7.20;99.90
20496;DHT22;10406;54.132;17.968;2024-03-23T16:05:09;7.10;99.90
20496;DHT22;10406;54.132;17.968;2024-03-23T16:10:30;7.10;99.90
20496;DHT22;10406;54.132;17.968;2024-03-23T16:15:56;7.00;99.90
20496;DHT22;10406;54.132;17.968;2024-03-23T16:21:16;7.00;99.90
20496;DHT22;10406;54.132;17.968;2024-03-23T16:26:38;6.80;99.90
20496;DHT22;10406;54.132;17.968;2024-03-23T16:32:03;6.70;99.90
20496;DHT22;10406;54.132;17.968;2024-03-23T16:37:30;5.90;99.90
20496;DHT22;10406;54.132;17.968;2024-03-23T16:42:51;5.10;99.90
20496;DHT22;10406;54.132;17.968;2024-03-23T16:48:14;6.50;99.90
20496;DHT22;10406;54.132;17.968;2024-03-23T16:53:35;6.50;99.90
20496;DHT22;10406;54.132;17.968;2024-03-23T16:58:58;7.20;99.90
20496;DHT22;10406;54.132;17.968;2024-03-23T17:04:22;6.00;99.90
20496;DHT22;10406;54.132;17.968;2024-03-23T17:09:46;5.90;99.90
20496;DHT22;10406;54.132;17.968;2024-03-23T19:59:03;2.40;99.90
20496;DHT22;10406;54.132;17.968;2024-03-23T20:04:34;2.50;99.90
20496;DHT22;10406;54.132;17.968;2024-03-23T20:09:55;3.50;99.90
20496;DHT22;10406;54.132;17.968;2024-03-23T20:15:19;3.10;99.90
20496;DHT22;10406;54.132;17.968;2024-03-23T20:20:41;3.40;99.90
20496;DHT22;10406;54.132;17.968;2024-03-23T20:26:03;2.50;99.90
20496;DHT22;10406;54.132;17.968;2024-03-23T20:31:26;2.50;99.90
20496;DHT22;10406;54.132;17.968;2024-03-23T20:36:47;0.50;99.90
20496;DHT22;10406;54.132;17.968;2024-03-23T20:42:08;2.50;99.90
20496;DHT22;10406;54.132;17.968;2024-03-23T20:47:32;3.00;99.90
20496;DHT22;10406;54.132;17.968;2024-03-23T20:52:57;4.10;99.90
20496;DHT22;10406;54.132;17.968;2024-03-23T20:58:18;3.30;99.90
20496;DHT22;10406;54.132;17.968;2024-03-23T21:03:41;1.70;99.90
20496;DHT22;10406;54.132;17.968;2024-03-23T21:09:02;2.40;99.90
20496;DHT22;10406;54.132;17.968;2024-03-23T21:14:41;2.30;99.90
20496;DHT22;10406;54.132;17.968;2024-03-23T21:57:48;5.80;99.90
20496;DHT22;10406;54.132;17.968;2024-03-23T22:03:08;3.80;99.90
20496;DHT22;10406;54.132;17.968;2024-03-23T22:08:30;5.10;99.90
20496;DHT22;10406;54.132;17.968;2024-03-23T22:13:52;3.70;99.90
20496;DHT22;10406;54.132;17.968;2024-03-23T22:19:14;4.00;99.90
20496;DHT22;10406;54.132;17.968;2024-03-23T22:25:32;4.10;99.90
20496;DHT22;10406;54.132;17.968;2024-03-23T22:30:40;4.30;99.90
20496;DHT22;10406;54.132;17.968;2024-03-23T22:36:00;4.10;99.90
20496;DHT22;10406;54.132;17.968;2024-03-23T22:41:25;4.20;99.90
20496;DHT22;10406;54.132;17.968;2024-03-23T22:46:53;4.10;99.90
20496;DHT22;10406;54.132;17.968;2024-03-23T22:52:17;5.40;99.90
20496;DHT22;10406;54.132;17.968;2024-03-23T22:57:38;6.30;99.90
20496;DHT22;10406;54.132;17.968;2024-03-23T23:03:06;2.80;99.90
20496;DHT22;10406;54.132;17.968;2024-03-23T23:08:27;4.30;99.90
20496;DHT22;10406;54.132;17.968;2024-03-23T23:13:48;2.40;99.90
